createdAt,value
2022-12-01T00:00:51.878Z,19.23
2022-12-01T00:03:18.886Z,20.20
2022-12-01T00:05:45.861Z,18.88
2022-12-01T00:08:12.716Z,19.48
2022-12-01T00:10:39.650Z,19.63
2022-12-01T00:13:06.539Z,19.35
2022-12-01T00:15:36.193Z,20.65
2022-12-01T00:18:05.480Z,20.52
2022-12-01T00:20:35.575Z,19.90
2022-12-01T00:23:02.445Z,19.90
2022-12-01T00:25:29.558Z,20.35
2022-12-01T00:27:57.410Z,20.05
2022-12-01T00:30:24.273Z,21.10
2022-12-01T00:32:51.162Z,20.27
2022-12-01T00:35:18.119Z,20.88
2022-12-01T00:37:45.033Z,21.30
2022-12-01T00:40:12.418Z,20.80
2022-12-01T00:42:39.259Z,21.17
2022-12-01T00:45:06.589Z,21.85
2022-12-01T00:47:33.541Z,20.80
2022-12-01T00:50:00.637Z,22.00
2022-12-01T00:52:27.669Z,21.52
2022-12-01T00:54:54.575Z,21.65
2022-12-01T00:57:21.466Z,22.60
2022-12-01T00:59:49.340Z,21.92
2022-12-01T01:02:16.455Z,22.20
2022-12-01T01:04:43.437Z,22.25
2022-12-01T01:07:10.288Z,22.05
2022-12-01T01:09:37.213Z,21.90
2022-12-01T01:12:04.223Z,22.35
2022-12-01T01:14:31.107Z,20.98
2022-12-01T01:16:58.063Z,21.98
2022-12-01T01:19:25.063Z,21.73
2022-12-01T01:21:51.931Z,20.67
2022-12-01T01:24:18.871Z,21.80
2022-12-01T01:26:45.777Z,20.60
2022-12-01T01:29:12.693Z,20.58
2022-12-01T01:31:39.856Z,20.67
2022-12-01T01:34:07.183Z,21.00
2022-12-01T01:36:34.097Z,19.65
2022-12-01T01:39:01.102Z,20.05
2022-12-01T01:41:28.927Z,19.50
2022-12-01T01:43:59.595Z,19.77
2022-12-01T01:46:30.849Z,19.27
2022-12-01T01:49:02.515Z,20.17
2022-12-01T01:51:49.428Z,18.88
2022-12-01T01:54:25.140Z,18.80
2022-12-01T01:56:52.184Z,18.35
2022-12-01T01:59:24.387Z,17.35
2022-12-01T02:01:56.592Z,17.70
2022-12-01T02:04:23.919Z,17.75
2022-12-01T02:06:51.922Z,17.42
2022-12-01T02:09:18.939Z,17.92
2022-12-01T02:12:22.378Z,18.02
2022-12-01T02:15:08.101Z,17.20
2022-12-01T02:17:53.784Z,17.08
2022-12-01T02:20:42.538Z,17.58
2022-12-01T02:23:33.902Z,17.67
2022-12-01T02:26:30.885Z,17.50
2022-12-01T02:29:09.718Z,17.50
2022-12-01T02:31:59.463Z,16.98
2022-12-01T02:34:31.264Z,16.60
2022-12-01T02:37:08.896Z,16.90
2022-12-01T02:39:37.452Z,17.77
2022-12-01T02:42:07.903Z,17.88
2022-12-01T02:44:36.568Z,16.98
2022-12-01T02:47:05.500Z,15.85
2022-12-01T02:49:36.561Z,16.27
2022-12-01T02:52:04.949Z,16.50
2022-12-01T02:54:31.887Z,16.90
2022-12-01T02:56:58.779Z,16.42
2022-12-01T02:59:25.681Z,16.80
2022-12-01T03:02:15.534Z,16.58
2022-12-01T03:05:00.367Z,15.73
2022-12-01T03:07:48.998Z,16.05
2022-12-01T03:10:28.875Z,15.45
2022-12-01T03:13:08.946Z,15.57
2022-12-01T03:16:09.943Z,15.45
2022-12-01T03:18:39.967Z,15.10
2022-12-01T03:21:21.429Z,14.38
2022-12-01T03:23:53.259Z,14.18
2022-12-01T03:26:21.083Z,13.98
2022-12-01T03:28:51.520Z,14.02
2022-12-01T03:31:21.020Z,13.98
2022-12-01T03:33:50.686Z,13.68
2022-12-01T03:36:39.578Z,13.27
2022-12-01T03:39:12.734Z,14.13
2022-12-01T03:42:12.995Z,13.02
2022-12-01T03:44:52.043Z,12.38
2022-12-01T03:47:21.215Z,13.07
2022-12-01T03:49:49.422Z,12.13
2022-12-01T03:52:53.891Z,12.77
2022-12-01T03:55:28.882Z,12.43
2022-12-01T04:00:27.220Z,11.93
2022-12-01T04:02:58.740Z,12.48
2022-12-01T04:05:26.040Z,12.57
2022-12-01T04:07:53.397Z,12.05
2022-12-01T04:10:20.430Z,11.88
2022-12-01T04:12:47.454Z,12.43
2022-12-01T04:15:14.569Z,11.55
2022-12-01T04:17:45.174Z,11.07
2022-12-01T04:20:13.692Z,11.85
2022-12-01T04:22:40.575Z,11.57
2022-12-01T04:25:07.869Z,12.00
2022-12-01T04:27:34.863Z,11.10
2022-12-01T04:30:01.789Z,10.93
2022-12-01T04:32:28.744Z,10.95
2022-12-01T04:34:55.648Z,11.60
2022-12-01T04:37:22.504Z,11.18
2022-12-01T04:39:49.694Z,11.77
2022-12-01T04:42:16.815Z,12.05
2022-12-01T04:44:43.816Z,11.77
2022-12-01T04:47:10.722Z,12.10
2022-12-01T04:49:37.671Z,11.50
2022-12-01T04:52:05.069Z,11.32
2022-12-01T04:54:32.120Z,11.38
2022-12-01T04:56:59.391Z,10.30
2022-12-01T04:59:26.620Z,10.93
2022-12-01T05:01:53.820Z,10.30
2022-12-01T05:04:20.988Z,9.60
2022-12-01T05:06:48.099Z,10.38
2022-12-01T05:09:17.395Z,10.25
2022-12-01T05:11:44.971Z,10.63
2022-12-01T05:14:11.925Z,10.20
2022-12-01T05:16:39.171Z,10.63
2022-12-01T05:19:24.917Z,11.00
2022-12-01T05:21:52.117Z,9.65
2022-12-01T05:24:19.789Z,10.90
2022-12-01T05:26:49.638Z,11.00
2022-12-01T05:29:16.859Z,10.00
2022-12-01T05:31:45.365Z,10.23
2022-12-01T05:34:12.514Z,11.90
2022-12-01T05:36:39.524Z,10.43
2022-12-01T05:39:06.605Z,10.48
2022-12-01T05:41:33.709Z,10.15
2022-12-01T05:44:00.970Z,9.80
2022-12-01T05:46:28.080Z,9.85
2022-12-01T05:48:55.159Z,10.55
2022-12-01T05:51:22.150Z,11.07
2022-12-01T05:53:49.179Z,10.82
2022-12-01T05:56:16.244Z,10.23
2022-12-01T05:58:43.512Z,9.43
2022-12-01T06:01:10.976Z,10.27
2022-12-01T06:03:38.067Z,10.52
2022-12-01T06:06:05.301Z,10.10
2022-12-01T06:08:32.366Z,10.27
2022-12-01T06:10:59.354Z,10.38
2022-12-01T06:13:26.312Z,10.02
2022-12-01T06:16:00.309Z,10.18
2022-12-01T06:18:27.708Z,10.45
2022-12-01T06:20:54.781Z,11.38
2022-12-01T06:23:24.307Z,10.02
2022-12-01T06:25:54.740Z,10.50
2022-12-01T06:28:21.859Z,10.80
2022-12-01T06:30:48.877Z,10.57
2022-12-01T06:33:16.015Z,11.02
2022-12-01T06:35:43.205Z,12.35
2022-12-01T06:38:10.159Z,11.75
2022-12-01T06:40:37.269Z,12.20
2022-12-01T06:43:04.347Z,10.77
2022-12-01T06:45:31.570Z,13.57
2022-12-01T06:47:58.937Z,11.15
2022-12-01T06:50:26.202Z,11.52
2022-12-01T06:52:53.893Z,12.00
2022-12-01T06:55:20.979Z,12.43
2022-12-01T06:57:48.274Z,12.10
2022-12-01T07:00:16.303Z,10.70
2022-12-01T07:02:43.691Z,11.93
2022-12-01T07:05:10.769Z,14.30
2022-12-01T07:07:38.908Z,13.45
2022-12-01T07:10:06.615Z,12.80
2022-12-01T07:12:33.744Z,11.25
2022-12-01T07:15:02.028Z,10.82
2022-12-01T07:17:29.835Z,12.68
2022-12-01T07:19:57.317Z,11.88
2022-12-01T07:22:29.479Z,13.40
2022-12-01T07:24:58.077Z,10.87
2022-12-01T07:27:25.007Z,10.57
2022-12-01T07:29:52.060Z,10.55
2022-12-01T07:32:19.690Z,10.48
2022-12-01T07:34:46.627Z,10.07
2022-12-01T07:37:13.536Z,10.02
2022-12-01T07:39:40.602Z,10.75
2022-12-01T07:42:08.565Z,9.30
2022-12-01T07:44:35.524Z,10.00
2022-12-01T07:47:02.489Z,9.20
2022-12-01T07:49:29.496Z,9.02
2022-12-01T07:51:56.408Z,9.77
2022-12-01T07:54:23.477Z,9.73
2022-12-01T07:56:50.443Z,9.43
2022-12-01T07:59:17.340Z,8.43
2022-12-01T08:01:46.081Z,8.45
2022-12-01T08:04:13.118Z,8.52
2022-12-01T08:06:40.062Z,9.07
2022-12-01T08:09:07.040Z,9.32
2022-12-01T08:11:33.997Z,8.38
2022-12-01T08:14:00.936Z,9.10
2022-12-01T08:16:27.995Z,8.10
2022-12-01T08:18:54.990Z,8.43
2022-12-01T08:21:23.001Z,8.80
2022-12-01T08:23:55.855Z,8.38
2022-12-01T08:26:23.540Z,7.93
2022-12-01T08:28:50.542Z,7.80
2022-12-01T08:31:20.117Z,7.82
2022-12-01T08:33:47.612Z,8.02
2022-12-01T08:36:15.398Z,8.00
2022-12-01T08:38:45.867Z,7.90
2022-12-01T08:41:13.287Z,8.25
2022-12-01T08:43:57.077Z,7.38
2022-12-01T08:46:27.008Z,8.73
2022-12-01T08:48:55.199Z,8.90
2022-12-01T08:51:22.234Z,7.38
2022-12-01T08:53:49.713Z,7.93
2022-12-01T08:56:20.450Z,8.40
2022-12-01T08:58:47.548Z,9.48
2022-12-01T09:01:15.584Z,7.90
2022-12-01T09:03:42.762Z,8.32
2022-12-01T09:06:22.994Z,8.48
2022-12-01T09:08:49.986Z,8.05
2022-12-01T09:11:18.506Z,8.15
2022-12-01T09:13:51.315Z,8.20
2022-12-01T09:16:21.418Z,7.82
2022-12-01T09:18:48.696Z,8.05
2022-12-01T09:21:19.327Z,8.50
2022-12-01T09:23:46.478Z,9.30
2022-12-01T09:26:14.104Z,9.13
2022-12-01T09:28:41.211Z,9.40
2022-12-01T09:31:09.846Z,9.20
2022-12-01T09:33:37.021Z,8.68
2022-12-01T09:36:04.723Z,9.05
2022-12-01T09:38:32.809Z,8.55
2022-12-01T09:41:00.801Z,8.73
2022-12-01T09:43:33.251Z,8.13
2022-12-01T09:46:02.482Z,8.02
2022-12-01T09:48:31.233Z,7.90
2022-12-01T09:50:58.246Z,8.48
2022-12-01T09:53:26.771Z,8.15
2022-12-01T09:55:55.131Z,8.52
2022-12-01T09:58:27.350Z,8.73
2022-12-01T10:00:54.483Z,8.45
2022-12-01T10:03:45.722Z,9.20
2022-12-01T10:06:32.100Z,8.85
2022-12-01T10:09:25.748Z,12.80
2022-12-01T10:11:55.281Z,10.30
2022-12-01T10:14:22.558Z,9.60
2022-12-01T10:16:58.540Z,8.82
2022-12-01T10:19:33.128Z,9.20
2022-12-01T10:22:06.258Z,8.95
2022-12-01T10:24:53.878Z,8.80
2022-12-01T10:27:52.960Z,9.50
2022-12-01T10:30:21.307Z,8.85
2022-12-01T10:32:51.994Z,9.48
2022-12-01T10:35:24.659Z,13.38
2022-12-01T10:38:00.813Z,10.93
2022-12-01T10:40:27.990Z,10.00
2022-12-01T10:42:55.123Z,10.18
2022-12-01T10:45:26.122Z,8.80
2022-12-01T10:48:20.056Z,9.02
2022-12-01T10:50:50.196Z,9.10
2022-12-01T10:53:23.086Z,8.52
2022-12-01T10:56:11.891Z,8.65
2022-12-01T10:58:58.906Z,9.05
2022-12-01T11:01:32.155Z,8.90
2022-12-01T11:04:31.551Z,8.80
2022-12-01T11:06:58.725Z,8.77
2022-12-01T11:09:29.720Z,8.63
2022-12-01T11:12:03.712Z,8.10
2022-12-01T11:14:36.591Z,7.97
2022-12-01T11:17:25.208Z,8.13
2022-12-01T11:19:52.691Z,8.65
2022-12-01T11:22:27.500Z,9.50
2022-12-01T11:24:54.376Z,8.05
2022-12-01T11:27:45.310Z,8.40
2022-12-01T11:30:41.816Z,8.23
2022-12-01T11:33:10.612Z,8.73
2022-12-01T11:35:40.110Z,8.05
2022-12-01T11:38:28.678Z,8.23
2022-12-01T11:40:57.867Z,7.78
2022-12-01T11:43:36.772Z,8.10
2022-12-01T11:46:08.195Z,8.40
2022-12-01T11:48:36.324Z,8.45
2022-12-01T11:51:27.184Z,7.60
2022-12-01T11:54:21.716Z,8.05
2022-12-01T11:57:17.418Z,7.93
2022-12-01T11:59:38.923Z,7.72
2022-12-01T12:02:09.260Z,8.10
2022-12-01T12:05:00.682Z,7.93
2022-12-01T12:07:53.498Z,8.20
2022-12-01T12:10:29.349Z,7.72
2022-12-01T12:13:08.187Z,8.27
2022-12-01T12:15:56.193Z,8.40
2022-12-01T12:18:51.081Z,7.90
2022-12-01T12:21:17.947Z,7.57
2022-12-01T12:23:50.850Z,7.65
2022-12-01T12:26:30.005Z,8.02
2022-12-01T12:29:27.036Z,8.25
2022-12-01T12:32:06.863Z,8.38
2022-12-01T12:34:58.257Z,7.50
2022-12-01T12:37:31.045Z,7.50
2022-12-01T12:40:12.995Z,8.38
2022-12-01T12:43:07.437Z,7.93
2022-12-01T12:45:54.666Z,8.07
2022-12-01T12:51:43.506Z,8.40
2022-12-01T12:54:12.959Z,7.80
2022-12-01T12:56:41.637Z,7.82
2022-12-01T12:59:31.936Z,9.95
2022-12-01T13:02:27.306Z,9.00
2022-12-01T13:05:03.129Z,8.80
2022-12-01T13:07:48.669Z,8.10
2022-12-01T13:10:26.794Z,8.57
2022-12-01T13:13:00.485Z,9.05
2022-12-01T13:15:27.524Z,8.77
2022-12-01T13:17:58.921Z,9.40
2022-12-01T13:20:27.778Z,8.93
2022-12-01T13:22:55.359Z,8.82
2022-12-01T13:25:32.818Z,9.40
2022-12-01T13:28:00.262Z,9.15
2022-12-01T13:30:27.200Z,9.00
2022-12-01T13:33:04.832Z,10.35
2022-12-01T13:35:38.324Z,9.73
2022-12-01T13:38:30.346Z,9.60
2022-12-01T13:41:18.723Z,9.20
2022-12-01T13:43:54.847Z,9.73
2022-12-01T13:46:32.298Z,9.32
2022-12-01T13:49:03.442Z,9.20
2022-12-01T13:52:16.117Z,9.50
2022-12-01T13:55:07.949Z,8.68
2022-12-01T13:57:38.622Z,9.57
2022-12-01T14:00:11.599Z,8.55
2022-12-01T14:02:41.799Z,8.80
2022-12-01T14:05:39.855Z,8.50
2022-12-01T14:08:25.619Z,9.25
2022-12-01T14:11:00.939Z,12.48
2022-12-01T14:13:28.044Z,11.05
2022-12-01T14:15:59.765Z,10.90
2022-12-01T14:18:33.187Z,10.25
2022-12-01T14:21:01.009Z,10.18
2022-12-01T14:23:30.657Z,9.35
2022-12-01T14:26:18.628Z,9.55
2022-12-01T14:29:00.914Z,8.93
2022-12-01T14:31:33.938Z,9.45
2022-12-01T14:34:14.436Z,8.43
2022-12-01T14:37:03.889Z,9.52
2022-12-01T14:39:45.487Z,9.30
2022-12-01T14:42:45.803Z,9.05
2022-12-01T14:45:15.277Z,9.73
2022-12-01T14:47:49.646Z,9.63
2022-12-01T14:50:30.388Z,8.52
2022-12-01T14:53:13.975Z,8.80
2022-12-01T14:55:43.023Z,9.88
2022-12-01T14:58:21.893Z,9.07
2022-12-01T15:01:03.072Z,9.90
2022-12-01T15:03:34.176Z,9.60
2022-12-01T15:06:01.384Z,10.35
2022-12-01T15:09:03.933Z,9.35
2022-12-01T15:11:25.992Z,9.32
2022-12-01T15:13:56.128Z,10.43
2022-12-01T15:16:25.466Z,9.90
2022-12-01T15:18:52.714Z,10.18
2022-12-01T15:21:27.641Z,10.30
2022-12-01T15:24:05.652Z,10.07
2022-12-01T15:26:52.091Z,10.55
2022-12-01T15:29:29.840Z,11.00
2022-12-01T15:32:01.661Z,9.98
2022-12-01T15:34:30.684Z,10.50
2022-12-01T15:36:58.028Z,10.63
2022-12-01T15:39:37.737Z,10.35
2022-12-01T15:42:04.802Z,11.30
2022-12-01T15:44:36.023Z,11.00
2022-12-01T15:47:36.145Z,11.63
2022-12-01T15:50:04.182Z,11.45
2022-12-01T15:52:31.297Z,11.05
2022-12-01T15:55:01.342Z,11.48
2022-12-01T15:57:28.304Z,11.73
2022-12-01T15:59:56.482Z,11.80
2022-12-01T16:02:30.374Z,11.80
2022-12-01T16:05:01.698Z,12.20
2022-12-01T16:08:10.997Z,12.57
2022-12-01T16:10:36.423Z,12.52
2022-12-01T16:13:37.576Z,12.77
2022-12-01T16:16:39.452Z,12.15
2022-12-01T16:19:09.311Z,13.00
2022-12-01T16:22:10.190Z,12.70
2022-12-01T16:24:56.537Z,12.57
2022-12-01T16:27:28.013Z,13.13
2022-12-01T16:30:02.708Z,13.30
2022-12-01T16:32:36.308Z,13.15
2022-12-01T16:35:04.818Z,12.57
2022-12-01T16:37:31.693Z,13.60
2022-12-01T16:39:58.824Z,13.65
2022-12-01T16:42:25.769Z,13.65
2022-12-01T16:44:53.107Z,14.05
2022-12-01T16:47:24.844Z,14.13
2022-12-01T16:49:52.250Z,14.32
2022-12-01T16:52:43.557Z,14.05
2022-12-01T16:55:31.467Z,14.30
2022-12-01T16:57:58.405Z,14.05
2022-12-01T17:00:25.658Z,14.05
2022-12-01T17:02:52.945Z,13.63
2022-12-01T17:05:19.920Z,13.23
2022-12-01T17:07:46.852Z,13.60
2022-12-01T17:10:13.916Z,13.65
2022-12-01T17:12:40.994Z,13.70
2022-12-01T17:15:08.378Z,14.50
2022-12-01T17:17:35.458Z,13.77
2022-12-01T17:20:03.176Z,14.18
2022-12-01T17:22:30.410Z,14.57
2022-12-01T17:24:57.584Z,14.05
2022-12-01T17:27:25.791Z,14.60
2022-12-01T17:29:52.887Z,14.98
2022-12-01T17:32:19.800Z,14.52
2022-12-01T17:34:46.675Z,14.50
2022-12-01T17:37:17.646Z,14.32
2022-12-01T17:39:47.586Z,14.10
2022-12-01T17:42:14.426Z,15.00
2022-12-01T17:44:41.297Z,13.88
2022-12-01T17:47:08.196Z,14.68
2022-12-01T17:49:36.445Z,14.40
2022-12-01T17:52:04.674Z,15.05
2022-12-01T17:54:31.675Z,14.90
2022-12-01T17:56:58.722Z,15.45
2022-12-01T17:59:25.700Z,15.07
2022-12-01T18:01:52.813Z,15.02
2022-12-01T18:04:19.682Z,14.90
2022-12-01T18:06:50.787Z,15.70
2022-12-01T18:09:20.885Z,15.70
2022-12-01T18:11:47.795Z,14.52
2022-12-01T18:14:17.809Z,15.55
2022-12-01T18:16:44.845Z,14.60
2022-12-01T18:19:11.809Z,14.43
2022-12-01T18:21:38.722Z,15.32
2022-12-01T18:24:06.306Z,14.70
2022-12-01T18:26:33.471Z,14.45
2022-12-01T18:29:02.523Z,14.52
2022-12-01T18:31:29.754Z,14.35
2022-12-01T18:34:02.577Z,15.48
2022-12-01T18:36:30.030Z,15.75
2022-12-01T18:38:57.761Z,15.23
2022-12-01T18:41:24.687Z,15.15
2022-12-01T18:43:51.619Z,15.75
2022-12-01T18:46:19.145Z,15.05
2022-12-01T18:48:47.163Z,15.40
2022-12-01T18:51:14.167Z,15.52
2022-12-01T18:53:41.086Z,15.32
2022-12-01T18:56:11.609Z,15.35
2022-12-01T18:58:39.272Z,15.00
2022-12-01T19:01:25.892Z,15.20
2022-12-01T19:03:54.775Z,16.20
2022-12-01T19:06:21.712Z,15.70
2022-12-01T19:08:48.700Z,16.75
2022-12-01T19:11:15.653Z,15.13
2022-12-01T19:13:42.504Z,15.73
2022-12-01T19:16:12.128Z,15.55
2022-12-01T19:18:39.375Z,15.80
2022-12-01T19:21:07.242Z,15.75
2022-12-01T19:23:34.459Z,16.17
2022-12-01T19:26:08.312Z,15.05
2022-12-01T19:28:35.575Z,15.30
2022-12-01T19:31:10.081Z,15.52
2022-12-01T19:33:37.205Z,15.63
2022-12-01T19:36:15.053Z,15.45
2022-12-01T19:38:42.176Z,15.13
2022-12-01T19:41:09.334Z,14.80
2022-12-01T19:43:36.583Z,16.08
2022-12-01T19:46:14.967Z,14.93
2022-12-01T19:48:42.460Z,14.52
2022-12-01T19:51:19.142Z,14.43
2022-12-01T19:53:46.342Z,14.38
2022-12-01T19:56:13.256Z,14.20
2022-12-01T19:58:40.286Z,13.75
2022-12-01T20:01:09.358Z,14.05
2022-12-01T20:03:36.439Z,14.27
2022-12-01T20:06:23.421Z,13.90
2022-12-01T20:08:50.590Z,13.85
2022-12-01T20:11:17.676Z,13.20
2022-12-01T20:13:45.325Z,14.00
2022-12-01T20:16:21.649Z,13.80
2022-12-01T20:18:48.741Z,12.80
2022-12-01T20:21:21.145Z,13.88
2022-12-01T20:23:54.395Z,14.15
2022-12-01T20:26:24.911Z,14.27
2022-12-01T20:28:55.041Z,14.02
2022-12-01T20:31:24.568Z,14.40
2022-12-01T20:33:52.654Z,14.82
2022-12-01T20:36:19.679Z,14.35
2022-12-01T20:38:46.706Z,14.52
2022-12-01T20:41:13.816Z,15.50
2022-12-01T20:43:40.905Z,14.30
2022-12-01T20:46:07.959Z,15.30
2022-12-01T20:48:35.215Z,15.27
2022-12-01T20:51:03.069Z,14.95
2022-12-01T20:53:30.295Z,15.48
2022-12-01T20:55:57.293Z,14.73
2022-12-01T20:58:24.206Z,15.20
2022-12-01T21:00:51.147Z,14.32
2022-12-01T21:03:18.036Z,13.95
2022-12-01T21:05:44.921Z,13.20
2022-12-01T21:08:12.901Z,13.32
2022-12-01T21:10:41.415Z,13.60
2022-12-01T21:13:35.695Z,14.27
2022-12-01T21:16:06.982Z,13.65
2022-12-01T21:18:55.764Z,14.87
2022-12-01T21:21:29.982Z,13.70
2022-12-01T21:24:13.731Z,14.43
2022-12-01T21:26:42.286Z,13.50
2022-12-01T21:29:28.896Z,13.85
2022-12-01T21:31:58.834Z,13.05
2022-12-01T21:34:27.096Z,13.95
2022-12-01T21:37:00.095Z,13.20
2022-12-01T21:39:28.426Z,13.23
2022-12-01T21:41:56.639Z,13.48
2022-12-01T21:44:25.431Z,13.18
2022-12-01T21:46:55.444Z,13.43
2022-12-01T21:49:35.588Z,13.23
2022-12-01T21:52:03.576Z,13.63
2022-12-01T21:54:30.546Z,13.63
2022-12-01T21:56:57.696Z,12.60
2022-12-01T21:59:24.730Z,12.70
2022-12-01T22:01:55.555Z,13.95
2022-12-01T22:04:29.577Z,13.73
2022-12-01T22:06:57.112Z,12.97
2022-12-01T22:09:27.581Z,13.52
2022-12-01T22:12:37.165Z,13.23
2022-12-01T22:15:04.389Z,14.10
2022-12-01T22:17:31.237Z,13.70
2022-12-01T22:20:00.557Z,13.05
2022-12-01T22:22:28.876Z,13.95
2022-12-01T22:25:07.217Z,13.90
2022-12-01T22:27:40.132Z,14.10
2022-12-01T22:30:07.415Z,12.95
2022-12-01T22:32:43.107Z,14.05
2022-12-01T22:35:26.167Z,13.45
2022-12-01T22:38:11.116Z,13.82
2022-12-01T22:40:39.193Z,13.45
2022-12-01T22:43:19.678Z,13.65
2022-12-01T22:46:07.709Z,14.02
2022-12-01T22:48:44.613Z,13.27
2022-12-01T22:51:14.334Z,14.35
2022-12-01T22:53:41.640Z,14.25
2022-12-01T22:56:26.656Z,13.57
2022-12-01T22:58:53.651Z,13.98
2022-12-01T23:01:30.065Z,14.20
2022-12-01T23:04:26.403Z,14.07
2022-12-01T23:06:57.643Z,14.57
2022-12-01T23:09:28.326Z,14.32
2022-12-01T23:12:01.923Z,14.55
2022-12-01T23:14:29.152Z,14.35
2022-12-01T23:17:07.380Z,14.45
2022-12-01T23:19:34.640Z,14.63
2022-12-01T23:22:01.597Z,14.45
2022-12-01T23:24:33.464Z,13.88
2022-12-01T23:27:00.706Z,14.77
2022-12-01T23:29:27.599Z,14.25
2022-12-01T23:31:54.509Z,14.27
2022-12-01T23:34:21.461Z,15.32
2022-12-01T23:36:48.967Z,14.77
2022-12-01T23:39:16.425Z,14.73
2022-12-01T23:41:47.630Z,14.75
2022-12-01T23:44:21.183Z,15.20
2022-12-01T23:46:49.248Z,14.68
2022-12-01T23:49:18.972Z,14.35
2022-12-01T23:51:48.053Z,14.27
2022-12-01T23:54:22.096Z,14.43
2022-12-01T23:56:55.031Z,13.77
2022-12-01T23:59:22.092Z,14.20
